sensor_id;sensor_type;location;lat;lon;timestamp;temperature;humidity
26479;DHT22;14163;-26.142;27.992;2022-10-26T00:00:00;23.90;65.50
26479;DHT22;14163;-26.142;27.992;2022-10-26T00:02:39;23.90;65.80
26479;DHT22;14163;-26.142;27.992;2022-10-26T00:05:17;23.90;65.60
26479;DHT22;14163;-26.142;27.992;2022-10-26T00:07:49;23.90;66.50
26479;DHT22;14163;-26.142;27.992;2022-10-26T00:10:21;23.90;66.50
26479;DHT22;14163;-26.142;27.992;2022-10-26T00:12:52;23.80;66.10
26479;DHT22;14163;-26.142;27.992;2022-10-26T00:15:21;23.70;66.00
26479;DHT22;14163;-26.142;27.992;2022-10-26T00:17:50;23.70;65.90
26479;DHT22;14163;-26.142;27.992;2022-10-26T00:20:19;23.70;66.00
26479;DHT22;14163;-26.142;27.992;2022-10-26T00:22:49;23.60;66.10
26479;DHT22;14163;-26.142;27.992;2022-10-26T00:25:18;23.60;66.10
26479;DHT22;14163;-26.142;27.992;2022-10-26T00:27:48;23.60;66.20
26479;DHT22;14163;-26.142;27.992;2022-10-26T00:30:19;23.50;66.00
26479;DHT22;14163;-26.142;27.992;2022-10-26T00:32:48;23.50;66.50
26479;DHT22;14163;-26.142;27.992;2022-10-26T00:35:17;23.50;66.40
26479;DHT22;14163;-26.142;27.992;2022-10-26T00:37:47;23.50;66.80
26479;DHT22;14163;-26.142;27.992;2022-10-26T00:40:16;23.50;66.50
26479;DHT22;14163;-26.142;27.992;2022-10-26T00:42:45;23.50;66.20
26479;DHT22;14163;-26.142;27.992;2022-10-26T00:45:22;23.40;66.30
26479;DHT22;14163;-26.142;27.992;2022-10-26T00:47:54;23.40;66.40
26479;DHT22;14163;-26.142;27.992;2022-10-26T00:50:27;23.40;66.50
26479;DHT22;14163;-26.142;27.992;2022-10-26T00:52:58;23.40;66.60
26479;DHT22;14163;-26.142;27.992;2022-10-26T00:55:32;23.30;67.10
26479;DHT22;14163;-26.142;27.992;2022-10-26T00:58:06;23.30;67.00
26479;DHT22;14163;-26.142;27.992;2022-10-26T01:00:41;23.30;67.20
26479;DHT22;14163;-26.142;27.992;2022-10-26T01:03:11;23.30;67.10
26479;DHT22;14163;-26.142;27.992;2022-10-26T01:05:42;23.30;67.20
26479;DHT22;14163;-26.142;27.992;2022-10-26T01:08:14;23.20;66.90
26479;DHT22;14163;-26.142;27.992;2022-10-26T01:10:45;23.20;66.70
26479;DHT22;14163;-26.142;27.992;2022-10-26T01:13:17;23.20;66.80
26479;DHT22;14163;-26.142;27.992;2022-10-26T01:15:54;23.20;66.90
26479;DHT22;14163;-26.142;27.992;2022-10-26T01:18:31;23.10;66.50
26479;DHT22;14163;-26.142;27.992;2022-10-26T01:21:20;23.10;66.50
26479;DHT22;14163;-26.142;27.992;2022-10-26T01:24:15;23.10;67.20
26479;DHT22;14163;-26.142;27.992;2022-10-26T01:26:57;23.10;66.80
26479;DHT22;14163;-26.142;27.992;2022-10-26T01:29:49;23.10;65.90
26479;DHT22;14163;-26.142;27.992;2022-10-26T01:32:28;23.00;65.40
26479;DHT22;14163;-26.142;27.992;2022-10-26T01:35:03;22.90;65.00
26479;DHT22;14163;-26.142;27.992;2022-10-26T01:37:38;22.90;65.10
26479;DHT22;14163;-26.142;27.992;2022-10-26T01:40:14;23.00;65.10
26479;DHT22;14163;-26.142;27.992;2022-10-26T01:42:48;23.00;64.90
26479;DHT22;14163;-26.142;27.992;2022-10-26T01:45:20;23.00;64.30
26479;DHT22;14163;-26.142;27.992;2022-10-26T01:47:54;23.00;65.00
26479;DHT22;14163;-26.142;27.992;2022-10-26T01:50:25;22.90;64.10
26479;DHT22;14163;-26.142;27.992;2022-10-26T01:52:55;22.90;63.40
26479;DHT22;14163;-26.142;27.992;2022-10-26T01:55:44;22.90;63.30
26479;DHT22;14163;-26.142;27.992;2022-10-26T01:58:35;22.90;62.80
26479;DHT22;14163;-26.142;27.992;2022-10-26T02:01:26;22.90;63.10
26479;DHT22;14163;-26.142;27.992;2022-10-26T02:04:07;22.90;62.40
26479;DHT22;14163;-26.142;27.992;2022-10-26T02:06:48;22.90;62.20
26479;DHT22;14163;-26.142;27.992;2022-10-26T02:09:25;22.90;61.80
26479;DHT22;14163;-26.142;27.992;2022-10-26T02:11:58;22.90;61.10
26479;DHT22;14163;-26.142;27.992;2022-10-26T02:14:38;22.90;61.00
26479;DHT22;14163;-26.142;27.992;2022-10-26T02:17:15;22.90;61.20
26479;DHT22;14163;-26.142;27.992;2022-10-26T02:19:53;22.90;60.90
26479;DHT22;14163;-26.142;27.992;2022-10-26T02:22:26;22.90;61.30
26479;DHT22;14163;-26.142;27.992;2022-10-26T02:24:57;22.90;61.10
26479;DHT22;14163;-26.142;27.992;2022-10-26T02:27:33;22.80;61.40
26479;DHT22;14163;-26.142;27.992;2022-10-26T02:30:05;22.80;61.30
26479;DHT22;14163;-26.142;27.992;2022-10-26T02:32:37;22.70;61.60
26479;DHT22;14163;-26.142;27.992;2022-10-26T02:35:12;22.80;61.40
26479;DHT22;14163;-26.142;27.992;2022-10-26T02:37:44;22.80;60.50
26479;DHT22;14163;-26.142;27.992;2022-10-26T02:40:17;22.70;59.80
26479;DHT22;14163;-26.142;27.992;2022-10-26T02:42:49;22.70;59.60
26479;DHT22;14163;-26.142;27.992;2022-10-26T02:45:24;22.60;59.40
26479;DHT22;14163;-26.142;27.992;2022-10-26T02:47:54;22.60;59.10
26479;DHT22;14163;-26.142;27.992;2022-10-26T02:50:31;22.60;59.30
26479;DHT22;14163;-26.142;27.992;2022-10-26T02:53:04;22.70;59.50
26479;DHT22;14163;-26.142;27.992;2022-10-26T02:55:41;22.70;59.50
26479;DHT22;14163;-26.142;27.992;2022-10-26T02:58:13;22.60;59.40
26479;DHT22;14163;-26.142;27.992;2022-10-26T03:00:44;22.70;59.90
26479;DHT22;14163;-26.142;27.992;2022-10-26T03:03:14;22.70;59.50
26479;DHT22;14163;-26.142;27.992;2022-10-26T03:05:45;22.60;59.10
26479;DHT22;14163;-26.142;27.992;2022-10-26T03:08:15;22.60;59.10
26479;DHT22;14163;-26.142;27.992;2022-10-26T03:10:45;22.60;59.40
26479;DHT22;14163;-26.142;27.992;2022-10-26T03:13:14;22.60;59.00
26479;DHT22;14163;-26.142;27.992;2022-10-26T03:15:43;22.60;59.10
26479;DHT22;14163;-26.142;27.992;2022-10-26T03:18:12;22.60;59.00
26479;DHT22;14163;-26.142;27.992;2022-10-26T03:20:46;22.60;59.20
26479;DHT22;14163;-26.142;27.992;2022-10-26T03:23:16;22.60;59.30
26479;DHT22;14163;-26.142;27.992;2022-10-26T03:25:45;22.60;59.40
26479;DHT22;14163;-26.142;27.992;2022-10-26T03:28:14;22.60;59.60
26479;DHT22;14163;-26.142;27.992;2022-10-26T03:30:44;22.60;59.80
26479;DHT22;14163;-26.142;27.992;2022-10-26T03:33:14;22.50;59.80
26479;DHT22;14163;-26.142;27.992;2022-10-26T03:35:53;22.40;60.00
26479;DHT22;14163;-26.142;27.992;2022-10-26T03:38:22;22.40;60.00
26479;DHT22;14163;-26.142;27.992;2022-10-26T03:40:52;22.40;60.30
26479;DHT22;14163;-26.142;27.992;2022-10-26T03:43:22;22.40;60.10
26479;DHT22;14163;-26.142;27.992;2022-10-26T03:45:53;22.40;60.10
26479;DHT22;14163;-26.142;27.992;2022-10-26T03:48:23;22.40;60.50
26479;DHT22;14163;-26.142;27.992;2022-10-26T03:50:57;22.40;60.60
26479;DHT22;14163;-26.142;27.992;2022-10-26T03:53:27;22.40;60.50
26479;DHT22;14163;-26.142;27.992;2022-10-26T03:55:57;22.40;60.80
26479;DHT22;14163;-26.142;27.992;2022-10-26T03:58:27;22.40;60.60
26479;DHT22;14163;-26.142;27.992;2022-10-26T04:00:57;22.40;60.90
26479;DHT22;14163;-26.142;27.992;2022-10-26T04:03:27;22.40;61.30
26479;DHT22;14163;-26.142;27.992;2022-10-26T04:05:59;22.40;61.30
26479;DHT22;14163;-26.142;27.992;2022-10-26T04:08:30;22.40;62.00
26479;DHT22;14163;-26.142;27.992;2022-10-26T04:11:00;22.50;62.60
26479;DHT22;14163;-26.142;27.992;2022-10-26T04:13:30;22.50;62.70
26479;DHT22;14163;-26.142;27.992;2022-10-26T04:16:00;22.50;63.00
26479;DHT22;14163;-26.142;27.992;2022-10-26T04:18:30;22.60;63.10
26479;DHT22;14163;-26.142;27.992;2022-10-26T04:21:02;22.60;63.60
26479;DHT22;14163;-26.142;27.992;2022-10-26T04:23:32;22.60;64.10
26479;DHT22;14163;-26.142;27.992;2022-10-26T04:26:01;22.70;64.50
26479;DHT22;14163;-26.142;27.992;2022-10-26T04:28:32;22.70;65.10
26479;DHT22;14163;-26.142;27.992;2022-10-26T04:31:01;22.70;65.40
26479;DHT22;14163;-26.142;27.992;2022-10-26T04:33:31;22.70;65.00
26479;DHT22;14163;-26.142;27.992;2022-10-26T04:36:03;22.70;65.40
26479;DHT22;14163;-26.142;27.992;2022-10-26T04:38:33;22.80;65.90
26479;DHT22;14163;-26.142;27.992;2022-10-26T04:41:02;22.80;66.80
26479;DHT22;14163;-26.142;27.992;2022-10-26T04:43:31;22.80;66.70
26479;DHT22;14163;-26.142;27.992;2022-10-26T04:46:01;22.90;67.70
26479;DHT22;14163;-26.142;27.992;2022-10-26T04:48:30;22.90;67.40
26479;DHT22;14163;-26.142;27.992;2022-10-26T04:51:00;22.90;67.60
26479;DHT22;14163;-26.142;27.992;2022-10-26T04:53:31;23.00;68.40
26479;DHT22;14163;-26.142;27.992;2022-10-26T04:56:01;23.00;69.10
26479;DHT22;14163;-26.142;27.992;2022-10-26T04:58:30;23.00;69.70
26479;DHT22;14163;-26.142;27.992;2022-10-26T05:01:01;23.10;70.20
26479;DHT22;14163;-26.142;27.992;2022-10-26T05:03:30;23.10;70.70
26479;DHT22;14163;-26.142;27.992;2022-10-26T05:06:00;23.10;71.90
26479;DHT22;14163;-26.142;27.992;2022-10-26T05:08:32;23.20;72.00
26479;DHT22;14163;-26.142;27.992;2022-10-26T05:11:01;23.30;72.00
26479;DHT22;14163;-26.142;27.992;2022-10-26T05:13:30;23.50;71.30
26479;DHT22;14163;-26.142;27.992;2022-10-26T05:15:59;23.60;72.10
26479;DHT22;14163;-26.142;27.992;2022-10-26T05:18:29;23.60;72.10
26479;DHT22;14163;-26.142;27.992;2022-10-26T05:20:58;23.70;72.80
26479;DHT22;14163;-26.142;27.992;2022-10-26T05:23:27;23.80;72.50
26479;DHT22;14163;-26.142;27.992;2022-10-26T05:25:58;23.80;72.40
26479;DHT22;14163;-26.142;27.992;2022-10-26T05:28:28;23.90;71.80
26479;DHT22;14163;-26.142;27.992;2022-10-26T05:30:58;24.00;72.10
26479;DHT22;14163;-26.142;27.992;2022-10-26T05:33:27;24.10;71.60
26479;DHT22;14163;-26.142;27.992;2022-10-26T05:35:57;24.20;70.80
26479;DHT22;14163;-26.142;27.992;2022-10-26T05:38:26;24.30;70.00
26479;DHT22;14163;-26.142;27.992;2022-10-26T05:40:57;24.30;70.40
26479;DHT22;14163;-26.142;27.992;2022-10-26T05:43:27;24.40;70.90
26479;DHT22;14163;-26.142;27.992;2022-10-26T05:45:57;24.50;70.90
26479;DHT22;14163;-26.142;27.992;2022-10-26T05:48:27;24.50;70.40
26479;DHT22;14163;-26.142;27.992;2022-10-26T05:50:59;24.50;70.00
26479;DHT22;14163;-26.142;27.992;2022-10-26T05:53:29;24.60;70.70
26479;DHT22;14163;-26.142;27.992;2022-10-26T05:56:01;24.60;69.70
26479;DHT22;14163;-26.142;27.992;2022-10-26T05:58:32;24.70;69.70
26479;DHT22;14163;-26.142;27.992;2022-10-26T06:01:10;24.70;69.10
26479;DHT22;14163;-26.142;27.992;2022-10-26T06:03:55;24.70;69.90
26479;DHT22;14163;-26.142;27.992;2022-10-26T06:06:32;24.70;71.20
26479;DHT22;14163;-26.142;27.992;2022-10-26T06:09:05;24.80;71.40
26479;DHT22;14163;-26.142;27.992;2022-10-26T06:11:39;24.80;69.70
26479;DHT22;14163;-26.142;27.992;2022-10-26T06:14:10;24.80;69.70
26479;DHT22;14163;-26.142;27.992;2022-10-26T06:16:49;24.90;70.70
26479;DHT22;14163;-26.142;27.992;2022-10-26T06:19:31;24.90;71.50
26479;DHT22;14163;-26.142;27.992;2022-10-26T06:22:15;24.90;70.90
26479;DHT22;14163;-26.142;27.992;2022-10-26T06:24:52;25.00;70.30
26479;DHT22;14163;-26.142;27.992;2022-10-26T06:27:33;25.00;70.60
26479;DHT22;14163;-26.142;27.992;2022-10-26T06:30:09;25.10;71.00
26479;DHT22;14163;-26.142;27.992;2022-10-26T06:32:39;25.10;71.60
26479;DHT22;14163;-26.142;27.992;2022-10-26T06:35:19;25.20;71.50
26479;DHT22;14163;-26.142;27.992;2022-10-26T06:37:52;25.20;71.10
26479;DHT22;14163;-26.142;27.992;2022-10-26T06:40:22;25.30;71.60
26479;DHT22;14163;-26.142;27.992;2022-10-26T06:42:54;25.30;71.00
26479;DHT22;14163;-26.142;27.992;2022-10-26T06:45:24;25.40;71.90
26479;DHT22;14163;-26.142;27.992;2022-10-26T06:47:59;25.40;72.00
26479;DHT22;14163;-26.142;27.992;2022-10-26T06:50:34;25.40;71.90
26479;DHT22;14163;-26.142;27.992;2022-10-26T06:53:13;25.50;71.80
26479;DHT22;14163;-26.142;27.992;2022-10-26T06:55:47;25.50;71.60
26479;DHT22;14163;-26.142;27.992;2022-10-26T06:58:21;25.60;70.80
26479;DHT22;14163;-26.142;27.992;2022-10-26T07:00:53;25.70;71.80
26479;DHT22;14163;-26.142;27.992;2022-10-26T07:03:23;25.70;71.90
26479;DHT22;14163;-26.142;27.992;2022-10-26T07:05:52;25.70;71.80
26479;DHT22;14163;-26.142;27.992;2022-10-26T07:08:22;25.80;71.20
26479;DHT22;14163;-26.142;27.992;2022-10-26T07:10:51;25.80;71.90
26479;DHT22;14163;-26.142;27.992;2022-10-26T07:13:22;25.90;73.40
26479;DHT22;14163;-26.142;27.992;2022-10-26T07:15:51;26.00;74.80
26479;DHT22;14163;-26.142;27.992;2022-10-26T07:18:20;26.00;74.80
26479;DHT22;14163;-26.142;27.992;2022-10-26T07:20:50;26.10;75.60
26479;DHT22;14163;-26.142;27.992;2022-10-26T07:23:19;26.20;75.90
26479;DHT22;14163;-26.142;27.992;2022-10-26T07:25:49;26.20;75.70
26479;DHT22;14163;-26.142;27.992;2022-10-26T07:28:18;26.30;76.80
26479;DHT22;14163;-26.142;27.992;2022-10-26T07:30:49;26.40;77.20
26479;DHT22;14163;-26.142;27.992;2022-10-26T07:33:18;26.50;78.50
26479;DHT22;14163;-26.142;27.992;2022-10-26T07:35:47;26.50;79.00
26479;DHT22;14163;-26.142;27.992;2022-10-26T07:38:17;26.60;79.60
26479;DHT22;14163;-26.142;27.992;2022-10-26T07:40:46;26.60;79.70
26479;DHT22;14163;-26.142;27.992;2022-10-26T07:43:16;26.70;79.80
26479;DHT22;14163;-26.142;27.992;2022-10-26T07:45:50;26.80;79.00
26479;DHT22;14163;-26.142;27.992;2022-10-26T07:48:19;26.90;78.00
26479;DHT22;14163;-26.142;27.992;2022-10-26T07:50:48;26.90;77.50
26479;DHT22;14163;-26.142;27.992;2022-10-26T07:53:18;27.00;75.60
26479;DHT22;14163;-26.142;27.992;2022-10-26T07:55:53;27.10;75.30
26479;DHT22;14163;-26.142;27.992;2022-10-26T07:58:22;27.10;76.00
26479;DHT22;14163;-26.142;27.992;2022-10-26T08:00:53;27.00;73.80
26479;DHT22;14163;-26.142;27.992;2022-10-26T08:03:23;27.10;75.80
26479;DHT22;14163;-26.142;27.992;2022-10-26T08:05:52;27.20;74.80
26479;DHT22;14163;-26.142;27.992;2022-10-26T08:08:22;27.10;74.20
26479;DHT22;14163;-26.142;27.992;2022-10-26T08:10:51;27.00;73.80
26479;DHT22;14163;-26.142;27.992;2022-10-26T08:13:20;27.00;71.10
26479;DHT22;14163;-26.142;27.992;2022-10-26T08:15:54;27.10;72.40
26479;DHT22;14163;-26.142;27.992;2022-10-26T08:18:25;27.20;76.00
26479;DHT22;14163;-26.142;27.992;2022-10-26T08:20:59;27.20;79.70
26479;DHT22;14163;-26.142;27.992;2022-10-26T08:23:29;27.20;75.40
26479;DHT22;14163;-26.142;27.992;2022-10-26T08:25:58;27.30;74.70
26479;DHT22;14163;-26.142;27.992;2022-10-26T08:28:28;27.40;75.50
26479;DHT22;14163;-26.142;27.992;2022-10-26T08:30:58;27.30;69.10
26479;DHT22;14163;-26.142;27.992;2022-10-26T08:33:28;27.20;68.20
26479;DHT22;14163;-26.142;27.992;2022-10-26T08:35:58;27.20;70.70
26479;DHT22;14163;-26.142;27.992;2022-10-26T08:38:28;27.30;69.30
26479;DHT22;14163;-26.142;27.992;2022-10-26T08:41:05;27.40;73.20
26479;DHT22;14163;-26.142;27.992;2022-10-26T08:43:39;27.50;73.30
26479;DHT22;14163;-26.142;27.992;2022-10-26T08:46:12;27.50;72.50
26479;DHT22;14163;-26.142;27.992;2022-10-26T08:48:46;27.60;70.60
26479;DHT22;14163;-26.142;27.992;2022-10-26T08:51:20;27.70;71.40
26479;DHT22;14163;-26.142;27.992;2022-10-26T08:53:56;27.70;70.30
26479;DHT22;14163;-26.142;27.992;2022-10-26T08:56:28;27.80;67.70
26479;DHT22;14163;-26.142;27.992;2022-10-26T08:59:04;27.90;67.70
26479;DHT22;14163;-26.142;27.992;2022-10-26T09:01:36;27.80;63.70
26479;DHT22;14163;-26.142;27.992;2022-10-26T09:04:11;27.90;65.10
26479;DHT22;14163;-26.142;27.992;2022-10-26T09:06:47;28.10;69.50
26479;DHT22;14163;-26.142;27.992;2022-10-26T09:09:22;28.20;71.30
26479;DHT22;14163;-26.142;27.992;2022-10-26T09:11:59;28.40;68.80
26479;DHT22;14163;-26.142;27.992;2022-10-26T09:14:38;28.50;68.90
26479;DHT22;14163;-26.142;27.992;2022-10-26T09:17:21;28.50;68.40
26479;DHT22;14163;-26.142;27.992;2022-10-26T09:20:05;28.60;65.30
26479;DHT22;14163;-26.142;27.992;2022-10-26T09:22:39;28.60;67.50
26479;DHT22;14163;-26.142;27.992;2022-10-26T09:25:17;28.60;65.20
26479;DHT22;14163;-26.142;27.992;2022-10-26T09:27:49;28.70;65.10
26479;DHT22;14163;-26.142;27.992;2022-10-26T09:30:20;28.70;66.20
26479;DHT22;14163;-26.142;27.992;2022-10-26T09:32:52;28.90;67.10
26479;DHT22;14163;-26.142;27.992;2022-10-26T09:35:27;29.00;68.40
26479;DHT22;14163;-26.142;27.992;2022-10-26T09:38:02;29.00;65.80
26479;DHT22;14163;-26.142;27.992;2022-10-26T09:40:38;29.10;67.00
26479;DHT22;14163;-26.142;27.992;2022-10-26T09:43:11;29.10;63.90
26479;DHT22;14163;-26.142;27.992;2022-10-26T09:45:43;28.90;62.70
26479;DHT22;14163;-26.142;27.992;2022-10-26T09:48:15;28.90;60.00
26479;DHT22;14163;-26.142;27.992;2022-10-26T09:50:49;29.00;63.10
26479;DHT22;14163;-26.142;27.992;2022-10-26T09:53:19;29.10;63.80
26479;DHT22;14163;-26.142;27.992;2022-10-26T09:55:58;29.10;63.80
26479;DHT22;14163;-26.142;27.992;2022-10-26T09:58:31;29.00;64.10
26479;DHT22;14163;-26.142;27.992;2022-10-26T10:01:02;29.10;63.70
26479;DHT22;14163;-26.142;27.992;2022-10-26T10:03:32;28.90;63.10
26479;DHT22;14163;-26.142;27.992;2022-10-26T10:06:18;28.90;63.90
26479;DHT22;14163;-26.142;27.992;2022-10-26T10:09:05;29.20;63.80
26479;DHT22;14163;-26.142;27.992;2022-10-26T10:11:40;29.40;61.20
26479;DHT22;14163;-26.142;27.992;2022-10-26T10:14:15;29.50;61.60
26479;DHT22;14163;-26.142;27.992;2022-10-26T10:16:54;29.50;58.40
26479;DHT22;14163;-26.142;27.992;2022-10-26T10:19:26;29.60;59.40
26479;DHT22;14163;-26.142;27.992;2022-10-26T10:21:59;29.80;59.70
26479;DHT22;14163;-26.142;27.992;2022-10-26T10:24:30;29.90;58.30
26479;DHT22;14163;-26.142;27.992;2022-10-26T10:27:01;29.80;56.30
26479;DHT22;14163;-26.142;27.992;2022-10-26T10:29:32;30.00;56.50
26479;DHT22;14163;-26.142;27.992;2022-10-26T10:32:03;29.80;55.70
26479;DHT22;14163;-26.142;27.992;2022-10-26T10:34:33;29.70;55.50
26479;DHT22;14163;-26.142;27.992;2022-10-26T10:37:03;29.60;55.80
26479;DHT22;14163;-26.142;27.992;2022-10-26T10:39:38;29.60;55.30
26479;DHT22;14163;-26.142;27.992;2022-10-26T10:42:14;29.60;55.70
26479;DHT22;14163;-26.142;27.992;2022-10-26T10:44:45;29.80;56.10
26479;DHT22;14163;-26.142;27.992;2022-10-26T10:47:22;30.10;56.00
26479;DHT22;14163;-26.142;27.992;2022-10-26T10:49:56;30.40;54.10
26479;DHT22;14163;-26.142;27.992;2022-10-26T10:52:29;30.50;54.50
26479;DHT22;14163;-26.142;27.992;2022-10-26T10:55:17;30.70;54.30
26479;DHT22;14163;-26.142;27.992;2022-10-26T10:58:01;30.80;55.00
26479;DHT22;14163;-26.142;27.992;2022-10-26T11:00:36;30.90;55.50
26479;DHT22;14163;-26.142;27.992;2022-10-26T11:03:17;30.90;53.60
26479;DHT22;14163;-26.142;27.992;2022-10-26T11:06:03;30.80;53.60
26479;DHT22;14163;-26.142;27.992;2022-10-26T11:08:41;30.80;54.00
26479;DHT22;14163;-26.142;27.992;2022-10-26T11:11:13;31.00;53.70
26479;DHT22;14163;-26.142;27.992;2022-10-26T11:13:49;31.20;53.10
26479;DHT22;14163;-26.142;27.992;2022-10-26T11:16:23;31.50;53.80
26479;DHT22;14163;-26.142;27.992;2022-10-26T11:18:56;31.90;54.90
26479;DHT22;14163;-26.142;27.992;2022-10-26T11:21:29;32.40;55.70
26479;DHT22;14163;-26.142;27.992;2022-10-26T11:24:09;32.70;53.60
26479;DHT22;14163;-26.142;27.992;2022-10-26T11:26:45;32.60;51.80
26479;DHT22;14163;-26.142;27.992;2022-10-26T11:29:34;32.70;51.80
26479;DHT22;14163;-26.142;27.992;2022-10-26T11:32:13;33.50;51.80
26479;DHT22;14163;-26.142;27.992;2022-10-26T11:34:48;34.20;51.10
26479;DHT22;14163;-26.142;27.992;2022-10-26T11:37:23;34.20;50.50
26479;DHT22;14163;-26.142;27.992;2022-10-26T11:40:01;34.80;49.00
26479;DHT22;14163;-26.142;27.992;2022-10-26T11:42:34;35.20;48.60
26479;DHT22;14163;-26.142;27.992;2022-10-26T11:45:12;35.70;50.50
26479;DHT22;14163;-26.142;27.992;2022-10-26T11:47:47;36.10;49.30
26479;DHT22;14163;-26.142;27.992;2022-10-26T11:50:22;36.70;48.30
26479;DHT22;14163;-26.142;27.992;2022-10-26T11:52:55;37.30;48.50
26479;DHT22;14163;-26.142;27.992;2022-10-26T11:55:28;37.90;46.50
26479;DHT22;14163;-26.142;27.992;2022-10-26T11:57:57;37.80;46.20
26479;DHT22;14163;-26.142;27.992;2022-10-26T12:00:29;38.10;47.80
26479;DHT22;14163;-26.142;27.992;2022-10-26T14:06:36;29.50;48.80
26479;DHT22;14163;-26.142;27.992;2022-10-26T14:09:12;29.60;48.70
26479;DHT22;14163;-26.142;27.992;2022-10-26T14:11:45;30.30;47.90
26479;DHT22;14163;-26.142;27.992;2022-10-26T14:14:21;31.00;47.60
26479;DHT22;14163;-26.142;27.992;2022-10-26T14:16:52;31.60;46.90
26479;DHT22;14163;-26.142;27.992;2022-10-26T14:19:26;32.10;45.80
26479;DHT22;14163;-26.142;27.992;2022-10-26T14:21:58;32.50;45.00
26479;DHT22;14163;-26.142;27.992;2022-10-26T14:24:28;32.70;45.60
26479;DHT22;14163;-26.142;27.992;2022-10-26T14:26:58;32.90;44.70
26479;DHT22;14163;-26.142;27.992;2022-10-26T14:29:31;33.00;44.80
26479;DHT22;14163;-26.142;27.992;2022-10-26T14:32:00;33.00;45.20
26479;DHT22;14163;-26.142;27.992;2022-10-26T14:34:47;33.20;45.20
26479;DHT22;14163;-26.142;27.992;2022-10-26T14:37:29;33.40;44.90
26479;DHT22;14163;-26.142;27.992;2022-10-26T14:40:02;33.40;45.10
26479;DHT22;14163;-26.142;27.992;2022-10-26T14:42:34;33.40;44.80
26479;DHT22;14163;-26.142;27.992;2022-10-26T14:45:17;33.50;44.80
26479;DHT22;14163;-26.142;27.992;2022-10-26T14:47:48;33.40;45.00
26479;DHT22;14163;-26.142;27.992;2022-10-26T14:50:19;33.40;49.50
26479;DHT22;14163;-26.142;27.992;2022-10-26T14:52:54;33.30;48.20
26479;DHT22;14163;-26.142;27.992;2022-10-26T14:55:24;33.20;54.50
26479;DHT22;14163;-26.142;27.992;2022-10-26T14:58:06;33.10;51.80
26479;DHT22;14163;-26.142;27.992;2022-10-26T15:00:36;32.90;53.30
26479;DHT22;14163;-26.142;27.992;2022-10-26T15:03:14;33.00;46.40
26479;DHT22;14163;-26.142;27.992;2022-10-26T15:05:44;32.80;46.30
26479;DHT22;14163;-26.142;27.992;2022-10-26T15:08:41;32.80;48.20
26479;DHT22;14163;-26.142;27.992;2022-10-26T15:11:13;32.70;45.80
26479;DHT22;14163;-26.142;27.992;2022-10-26T15:13:42;32.50;48.40
26479;DHT22;14163;-26.142;27.992;2022-10-26T15:16:17;32.50;47.70
26479;DHT22;14163;-26.142;27.992;2022-10-26T15:18:48;32.50;47.80
26479;DHT22;14163;-26.142;27.992;2022-10-26T15:21:23;32.40;49.80
26479;DHT22;14163;-26.142;27.992;2022-10-26T15:23:56;32.40;50.70
26479;DHT22;14163;-26.142;27.992;2022-10-26T15:26:25;32.30;50.10
26479;DHT22;14163;-26.142;27.992;2022-10-26T15:28:56;32.20;48.10
26479;DHT22;14163;-26.142;27.992;2022-10-26T15:31:29;32.20;48.90
26479;DHT22;14163;-26.142;27.992;2022-10-26T15:34:13;32.30;51.50
26479;DHT22;14163;-26.142;27.992;2022-10-26T15:36:42;32.20;50.60
26479;DHT22;14163;-26.142;27.992;2022-10-26T15:39:13;32.30;51.90
26479;DHT22;14163;-26.142;27.992;2022-10-26T15:41:45;32.20;50.80
26479;DHT22;14163;-26.142;27.992;2022-10-26T15:44:16;32.30;51.00
26479;DHT22;14163;-26.142;27.992;2022-10-26T15:46:49;32.20;49.20
26479;DHT22;14163;-26.142;27.992;2022-10-26T15:49:19;32.10;48.60
26479;DHT22;14163;-26.142;27.992;2022-10-26T15:51:48;32.10;47.80
26479;DHT22;14163;-26.142;27.992;2022-10-26T15:54:19;32.10;48.00
26479;DHT22;14163;-26.142;27.992;2022-10-26T15:56:48;32.00;47.20
26479;DHT22;14163;-26.142;27.992;2022-10-26T15:59:18;32.00;47.80
26479;DHT22;14163;-26.142;27.992;2022-10-26T16:01:48;32.00;48.00
26479;DHT22;14163;-26.142;27.992;2022-10-26T16:04:18;32.00;48.10
26479;DHT22;14163;-26.142;27.992;2022-10-26T16:06:47;32.00;47.90
26479;DHT22;14163;-26.142;27.992;2022-10-26T16:09:19;31.90;48.00
26479;DHT22;14163;-26.142;27.992;2022-10-26T16:11:48;31.90;48.10
26479;DHT22;14163;-26.142;27.992;2022-10-26T16:14:17;31.90;48.50
26479;DHT22;14163;-26.142;27.992;2022-10-26T16:16:46;31.90;48.60
26479;DHT22;14163;-26.142;27.992;2022-10-26T16:19:15;31.80;48.90
26479;DHT22;14163;-26.142;27.992;2022-10-26T16:21:44;31.70;48.10
26479;DHT22;14163;-26.142;27.992;2022-10-26T16:24:13;31.60;47.90
26479;DHT22;14163;-26.142;27.992;2022-10-26T16:26:44;31.50;48.60
26479;DHT22;14163;-26.142;27.992;2022-10-26T16:29:14;31.50;48.70
26479;DHT22;14163;-26.142;27.992;2022-10-26T16:31:43;31.40;48.70
26479;DHT22;14163;-26.142;27.992;2022-10-26T16:34:12;31.40;48.70
26479;DHT22;14163;-26.142;27.992;2022-10-26T16:36:42;31.30;48.50
26479;DHT22;14163;-26.142;27.992;2022-10-26T16:39:11;31.30;48.80
26479;DHT22;14163;-26.142;27.992;2022-10-26T16:41:41;31.30;48.80
26479;DHT22;14163;-26.142;27.992;2022-10-26T16:44:13;31.30;48.80
26479;DHT22;14163;-26.142;27.992;2022-10-26T16:46:42;31.20;48.80
26479;DHT22;14163;-26.142;27.992;2022-10-26T16:49:11;31.20;48.80
26479;DHT22;14163;-26.142;27.992;2022-10-26T16:51:40;31.20;49.00
26479;DHT22;14163;-26.142;27.992;2022-10-26T16:54:09;31.00;48.40
26479;DHT22;14163;-26.142;27.992;2022-10-26T16:56:38;31.00;49.10
26479;DHT22;14163;-26.142;27.992;2022-10-26T16:59:09;31.00;48.80
26479;DHT22;14163;-26.142;27.992;2022-10-26T17:01:40;30.90;48.90
26479;DHT22;14163;-26.142;27.992;2022-10-26T17:04:09;30.80;48.70
26479;DHT22;14163;-26.142;27.992;2022-10-26T17:06:38;30.80;48.80
26479;DHT22;14163;-26.142;27.992;2022-10-26T17:09:07;30.70;48.90
26479;DHT22;14163;-26.142;27.992;2022-10-26T17:11:36;30.60;48.70
26479;DHT22;14163;-26.142;27.992;2022-10-26T17:14:05;30.60;49.00
26479;DHT22;14163;-26.142;27.992;2022-10-26T17:16:34;30.60;49.10
26479;DHT22;14163;-26.142;27.992;2022-10-26T17:19:05;30.50;49.00
26479;DHT22;14163;-26.142;27.992;2022-10-26T17:21:34;30.40;49.20
26479;DHT22;14163;-26.142;27.992;2022-10-26T17:24:04;30.40;49.00
26479;DHT22;14163;-26.142;27.992;2022-10-26T17:26:34;30.40;49.10
26479;DHT22;14163;-26.142;27.992;2022-10-26T17:29:03;30.30;49.00
26479;DHT22;14163;-26.142;27.992;2022-10-26T17:31:32;30.40;49.30
26479;DHT22;14163;-26.142;27.992;2022-10-26T17:34:01;30.30;49.60
26479;DHT22;14163;-26.142;27.992;2022-10-26T17:36:32;30.30;49.80
26479;DHT22;14163;-26.142;27.992;2022-10-26T17:39:01;30.20;49.70